sensor_id;sensor_type;location;lat;lon;timestamp;temperature;humidity
71039;SHT30;58692;43.212;27.908;2023-02-01T00:01:19;3.00;75.90
71039;SHT30;58692;43.212;27.908;2023-02-01T00:03:45;3.06;76.02
71039;SHT30;58692;43.212;27.908;2023-02-01T00:06:10;3.00;76.02
71039;SHT30;58692;43.212;27.908;2023-02-01T00:08:36;3.00;75.95
71039;SHT30;58692;43.212;27.908;2023-02-01T00:11:04;3.02;75.62
71039;SHT30;58692;43.212;27.908;2023-02-01T00:13:31;3.03;75.83
71039;SHT30;58692;43.212;27.908;2023-02-01T00:16:13;2.99;75.58
71039;SHT30;58692;43.212;27.908;2023-02-01T00:18:42;2.98;75.64
71039;SHT30;58692;43.212;27.908;2023-02-01T00:21:08;3.00;76.13
71039;SHT30;58692;43.212;27.908;2023-02-01T00:23:35;2.98;75.97
71039;SHT30;58692;43.212;27.908;2023-02-01T00:26:03;2.96;75.81
71039;SHT30;58692;43.212;27.908;2023-02-01T00:28:29;2.96;75.73
71039;SHT30;58692;43.212;27.908;2023-02-01T00:30:57;3.00;75.58
71039;SHT30;58692;43.212;27.908;2023-02-01T00:33:22;2.99;75.92
71039;SHT30;58692;43.212;27.908;2023-02-01T00:35:48;3.02;75.69
71039;SHT30;58692;43.212;27.908;2023-02-01T00:38:13;2.98;76.09
71039;SHT30;58692;43.212;27.908;2023-02-01T00:40:39;2.89;76.71
71039;SHT30;58692;43.212;27.908;2023-02-01T00:43:04;2.91;76.33
71039;SHT30;58692;43.212;27.908;2023-02-01T00:45:30;2.84;76.00
71039;SHT30;58692;43.212;27.908;2023-02-01T00:47:55;2.89;76.52
71039;SHT30;58692;43.212;27.908;2023-02-01T00:50:21;2.81;76.40
71039;SHT30;58692;43.212;27.908;2023-02-01T00:52:46;2.82;75.92
71039;SHT30;58692;43.212;27.908;2023-02-01T00:55:12;2.89;76.15
71039;SHT30;58692;43.212;27.908;2023-02-01T00:57:37;2.92;75.64
71039;SHT30;58692;43.212;27.908;2023-02-01T01:00:03;2.93;75.86
71039;SHT30;58692;43.212;27.908;2023-02-01T01:02:29;2.93;75.51
71039;SHT30;58692;43.212;27.908;2023-02-01T01:04:54;2.93;75.72
71039;SHT30;58692;43.212;27.908;2023-02-01T01:07:20;2.92;75.89
71039;SHT30;58692;43.212;27.908;2023-02-01T01:09:46;2.88;76.06
71039;SHT30;58692;43.212;27.908;2023-02-01T01:12:11;2.91;76.57
71039;SHT30;58692;43.212;27.908;2023-02-01T01:14:37;2.89;76.71
71039;SHT30;58692;43.212;27.908;2023-02-01T01:17:02;2.84;76.76
71039;SHT30;58692;43.212;27.908;2023-02-01T01:19:28;2.78;76.77
71039;SHT30;58692;43.212;27.908;2023-02-01T01:21:53;2.81;76.38
71039;SHT30;58692;43.212;27.908;2023-02-01T01:24:19;2.81;77.00
71039;SHT30;58692;43.212;27.908;2023-02-01T01:26:44;2.78;76.75
71039;SHT30;58692;43.212;27.908;2023-02-01T01:29:10;2.78;76.88
71039;SHT30;58692;43.212;27.908;2023-02-01T01:31:36;2.79;76.45
71039;SHT30;58692;43.212;27.908;2023-02-01T01:34:02;2.84;76.58
71039;SHT30;58692;43.212;27.908;2023-02-01T01:36:28;2.84;76.34
71039;SHT30;58692;43.212;27.908;2023-02-01T01:38:54;2.79;76.60
71039;SHT30;58692;43.212;27.908;2023-02-01T01:41:22;2.79;76.54
71039;SHT30;58692;43.212;27.908;2023-02-01T01:43:51;2.74;76.49
71039;SHT30;58692;43.212;27.908;2023-02-01T01:46:19;2.72;76.60
71039;SHT30;58692;43.212;27.908;2023-02-01T01:48:46;2.74;76.93
71039;SHT30;58692;43.212;27.908;2023-02-01T01:51:14;2.74;77.00
71039;SHT30;58692;43.212;27.908;2023-02-01T01:53:46;2.77;76.93
71039;SHT30;58692;43.212;27.908;2023-02-01T01:56:13;2.78;76.62
71039;SHT30;58692;43.212;27.908;2023-02-01T01:58:40;2.74;76.83
71039;SHT30;58692;43.212;27.908;2023-02-01T02:01:06;2.71;76.89
71039;SHT30;58692;43.212;27.908;2023-02-01T02:03:39;2.66;76.82
71039;SHT30;58692;43.212;27.908;2023-02-01T02:06:14;2.74;77.23
71039;SHT30;58692;43.212;27.908;2023-02-01T02:08:40;2.72;76.62
71039;SHT30;58692;43.212;27.908;2023-02-01T02:11:06;2.71;76.64
71039;SHT30;58692;43.212;27.908;2023-02-01T02:13:36;2.72;76.78
71039;SHT30;58692;43.212;27.908;2023-02-01T02:16:13;2.72;76.16
71039;SHT30;58692;43.212;27.908;2023-02-01T02:18:45;2.68;76.25
71039;SHT30;58692;43.212;27.908;2023-02-01T02:21:15;2.78;76.00
71039;SHT30;58692;43.212;27.908;2023-02-01T02:26:34;2.77;76.07
71039;SHT30;58692;43.212;27.908;2023-02-01T02:32:22;2.82;75.88
71039;SHT30;58692;43.212;27.908;2023-02-01T02:35:01;2.75;76.27
71039;SHT30;58692;43.212;27.908;2023-02-01T02:37:46;2.78;76.25
71039;SHT30;58692;43.212;27.908;2023-02-01T02:46:14;2.79;75.38
71039;SHT30;58692;43.212;27.908;2023-02-01T02:49:12;2.79;75.45
71039;SHT30;58692;43.212;27.908;2023-02-01T02:51:46;2.82;75.59
71039;SHT30;58692;43.212;27.908;2023-02-01T02:54:31;2.77;75.60
71039;SHT30;58692;43.212;27.908;2023-02-01T02:57:17;2.82;75.81
71039;SHT30;58692;43.212;27.908;2023-02-01T03:00:00;2.79;75.55
71039;SHT30;58692;43.212;27.908;2023-02-01T03:02:42;2.82;75.36
71039;SHT30;58692;43.212;27.908;2023-02-01T03:05:24;2.84;75.37
71039;SHT30;58692;43.212;27.908;2023-02-01T03:08:09;2.81;75.48
71039;SHT30;58692;43.212;27.908;2023-02-01T03:10:50;2.87;75.50
71039;SHT30;58692;43.212;27.908;2023-02-01T03:13:45;2.84;75.69
71039;SHT30;58692;43.212;27.908;2023-02-01T03:16:26;2.79;76.62
71039;SHT30;58692;43.212;27.908;2023-02-01T03:19:09;2.79;77.20
71039;SHT30;58692;43.212;27.908;2023-02-01T03:21:41;2.78;77.60
71039;SHT30;58692;43.212;27.908;2023-02-01T03:26:38;2.78;78.34
71039;SHT30;58692;43.212;27.908;2023-02-01T03:29:10;2.78;79.23
71039;SHT30;58692;43.212;27.908;2023-02-01T03:31:37;2.74;79.61
71039;SHT30;58692;43.212;27.908;2023-02-01T03:34:03;2.74;79.60
71039;SHT30;58692;43.212;27.908;2023-02-01T03:36:42;2.74;79.67
71039;SHT30;58692;43.212;27.908;2023-02-01T03:41:48;2.71;79.60
71039;SHT30;58692;43.212;27.908;2023-02-01T03:44:21;2.74;79.47
71039;SHT30;58692;43.212;27.908;2023-02-01T03:47:11;2.69;79.70
71039;SHT30;58692;43.212;27.908;2023-02-01T03:49:42;2.71;79.57
71039;SHT30;58692;43.212;27.908;2023-02-01T03:52:13;2.64;79.20
71039;SHT30;58692;43.212;27.908;2023-02-01T03:54:40;2.64;79.11
71039;SHT30;58692;43.212;27.908;2023-02-01T03:57:09;2.66;79.49
71039;SHT30;58692;43.212;27.908;2023-02-01T03:59:39;2.61;79.37
71039;SHT30;58692;43.212;27.908;2023-02-01T04:02:05;2.62;79.71
71039;SHT30;58692;43.212;27.908;2023-02-01T04:04:31;2.59;79.87
71039;SHT30;58692;43.212;27.908;2023-02-01T04:06:57;2.59;80.24
71039;SHT30;58692;43.212;27.908;2023-02-01T04:09:23;2.52;80.90
71039;SHT30;58692;43.212;27.908;2023-02-01T04:11:48;2.54;81.06
71039;SHT30;58692;43.212;27.908;2023-02-01T04:14:14;2.55;81.14
71039;SHT30;58692;43.212;27.908;2023-02-01T04:16:40;2.59;81.04
71039;SHT30;58692;43.212;27.908;2023-02-01T04:19:05;2.58;81.10
71039;SHT30;58692;43.212;27.908;2023-02-01T04:21:31;2.54;81.35
71039;SHT30;58692;43.212;27.908;2023-02-01T04:23:56;2.52;81.32
71039;SHT30;58692;43.212;27.908;2023-02-01T04:26:22;2.51;81.53
71039;SHT30;58692;43.212;27.908;2023-02-01T04:28:47;2.45;82.05
71039;SHT30;58692;43.212;27.908;2023-02-01T04:31:14;2.42;82.34
71039;SHT30;58692;43.212;27.908;2023-02-01T04:33:39;2.36;82.40
71039;SHT30;58692;43.212;27.908;2023-02-01T04:36:05;2.40;82.45
71039;SHT30;58692;43.212;27.908;2023-02-01T04:38:31;2.28;82.87
71039;SHT30;58692;43.212;27.908;2023-02-01T04:40:58;2.27;83.10
71039;SHT30;58692;43.212;27.908;2023-02-01T04:43:24;2.26;83.37
71039;SHT30;58692;43.212;27.908;2023-02-01T04:45:50;2.23;83.43
71039;SHT30;58692;43.212;27.908;2023-02-01T04:48:17;2.17;83.87
71039;SHT30;58692;43.212;27.908;2023-02-01T04:50:49;2.16;84.09
71039;SHT30;58692;43.212;27.908;2023-02-01T04:53:15;2.14;84.24
71039;SHT30;58692;43.212;27.908;2023-02-01T04:55:41;2.11;84.34
71039;SHT30;58692;43.212;27.908;2023-02-01T04:58:07;2.00;84.57
71039;SHT30;58692;43.212;27.908;2023-02-01T05:00:33;1.97;84.62
71039;SHT30;58692;43.212;27.908;2023-02-01T05:02:59;1.97;84.77
71039;SHT30;58692;43.212;27.908;2023-02-01T05:05:24;1.97;84.84
71039;SHT30;58692;43.212;27.908;2023-02-01T05:07:50;1.96;84.78
71039;SHT30;58692;43.212;27.908;2023-02-01T05:10:16;1.92;85.18
71039;SHT30;58692;43.212;27.908;2023-02-01T05:12:43;1.94;85.04
71039;SHT30;58692;43.212;27.908;2023-02-01T05:15:24;1.90;85.24
71039;SHT30;58692;43.212;27.908;2023-02-01T05:17:49;1.80;85.46
71039;SHT30;58692;43.212;27.908;2023-02-01T05:20:15;1.77;85.93
71039;SHT30;58692;43.212;27.908;2023-02-01T05:22:41;1.77;85.95
71039;SHT30;58692;43.212;27.908;2023-02-01T05:25:07;1.77;86.11
71039;SHT30;58692;43.212;27.908;2023-02-01T05:27:33;1.76;85.94
71039;SHT30;58692;43.212;27.908;2023-02-01T05:29:58;1.75;85.91
71039;SHT30;58692;43.212;27.908;2023-02-01T05:32:24;1.79;85.84
71039;SHT30;58692;43.212;27.908;2023-02-01T05:34:49;1.79;85.86
71039;SHT30;58692;43.212;27.908;2023-02-01T05:37:15;1.85;85.83
71039;SHT30;58692;43.212;27.908;2023-02-01T05:39:40;1.77;86.13
71039;SHT30;58692;43.212;27.908;2023-02-01T05:42:06;1.75;86.34
71039;SHT30;58692;43.212;27.908;2023-02-01T05:44:31;1.79;86.29
71039;SHT30;58692;43.212;27.908;2023-02-01T05:46:57;1.80;86.28
71039;SHT30;58692;43.212;27.908;2023-02-01T05:49:22;1.87;85.99
71039;SHT30;58692;43.212;27.908;2023-02-01T05:51:48;1.80;85.97
71039;SHT30;58692;43.212;27.908;2023-02-01T05:54:13;1.83;86.01
71039;SHT30;58692;43.212;27.908;2023-02-01T05:56:39;1.83;85.92
71039;SHT30;58692;43.212;27.908;2023-02-01T05:59:06;1.89;85.62
71039;SHT30;58692;43.212;27.908;2023-02-01T06:01:31;1.93;85.36
71039;SHT30;58692;43.212;27.908;2023-02-01T06:03:57;1.96;85.11
71039;SHT30;58692;43.212;27.908;2023-02-01T06:06:22;1.96;85.09
71039;SHT30;58692;43.212;27.908;2023-02-01T06:08:48;2.02;85.07
71039;SHT30;58692;43.212;27.908;2023-02-01T06:11:14;2.03;84.92
71039;SHT30;58692;43.212;27.908;2023-02-01T06:13:39;2.03;84.93
71039;SHT30;58692;43.212;27.908;2023-02-01T06:16:05;2.17;84.64
71039;SHT30;58692;43.212;27.908;2023-02-01T06:18:34;2.21;84.40
71039;SHT30;58692;43.212;27.908;2023-02-01T06:21:00;2.38;83.88
71039;SHT30;58692;43.212;27.908;2023-02-01T06:23:26;2.52;83.28
71039;SHT30;58692;43.212;27.908;2023-02-01T06:25:57;2.68;82.90
71039;SHT30;58692;43.212;27.908;2023-02-01T06:28:24;3.08;81.78
71039;SHT30;58692;43.212;27.908;2023-02-01T06:30:50;3.26;80.90
71039;SHT30;58692;43.212;27.908;2023-02-01T06:33:16;3.26;80.55
71039;SHT30;58692;43.212;27.908;2023-02-01T06:35:42;2.89;80.99
71039;SHT30;58692;43.212;27.908;2023-02-01T06:38:10;2.78;81.65
71039;SHT30;58692;43.212;27.908;2023-02-01T06:40:36;2.68;81.13
71039;SHT30;58692;43.212;27.908;2023-02-01T06:43:02;2.81;82.10
71039;SHT30;58692;43.212;27.908;2023-02-01T06:45:27;2.82;81.82
71039;SHT30;58692;43.212;27.908;2023-02-01T06:47:53;2.93;82.11
71039;SHT30;58692;43.212;27.908;2023-02-01T06:50:18;2.98;81.37
71039;SHT30;58692;43.212;27.908;2023-02-01T06:52:45;3.47;80.59
71039;SHT30;58692;43.212;27.908;2023-02-01T06:55:10;4.72;76.85
71039;SHT30;58692;43.212;27.908;2023-02-01T06:57:36;5.13;74.06
71039;SHT30;58692;43.212;27.908;2023-02-01T07:00:03;4.73;74.77
71039;SHT30;58692;43.212;27.908;2023-02-01T07:02:29;4.29;76.16
71039;SHT30;58692;43.212;27.908;2023-02-01T07:04:54;5.14;74.31
71039;SHT30;58692;43.212;27.908;2023-02-01T07:07:20;5.66;71.79
71039;SHT30;58692;43.212;27.908;2023-02-01T07:09:48;4.83;74.16
71039;SHT30;58692;43.212;27.908;2023-02-01T07:12:14;5.48;73.34
71039;SHT30;58692;43.212;27.908;2023-02-01T07:14:39;5.61;71.69
71039;SHT30;58692;43.212;27.908;2023-02-01T07:17:05;5.72;71.31
71039;SHT30;58692;43.212;27.908;2023-02-01T07:19:30;4.83;74.16
71039;SHT30;58692;43.212;27.908;2023-02-01T07:21:56;4.75;75.15
71039;SHT30;58692;43.212;27.908;2023-02-01T07:24:21;6.03;70.75
71039;SHT30;58692;43.212;27.908;2023-02-01T07:26:47;7.18;68.25
71039;SHT30;58692;43.212;27.908;2023-02-01T07:29:14;7.87;65.96
71039;SHT30;58692;43.212;27.908;2023-02-01T07:31:39;8.18;64.27
71039;SHT30;58692;43.212;27.908;2023-02-01T07:34:05;8.00;64.42
71039;SHT30;58692;43.212;27.908;2023-02-01T07:36:30;8.66;63.04
71039;SHT30;58692;43.212;27.908;2023-02-01T07:38:57;8.83;61.95
71039;SHT30;58692;43.212;27.908;2023-02-01T07:41:23;9.10;61.46
71039;SHT30;58692;43.212;27.908;2023-02-01T07:43:48;9.13;60.60
71039;SHT30;58692;43.212;27.908;2023-02-01T07:46:16;8.68;61.02
71039;SHT30;58692;43.212;27.908;2023-02-01T07:48:41;9.06;60.65
71039;SHT30;58692;43.212;27.908;2023-02-01T07:51:10;8.71;60.83
71039;SHT30;58692;43.212;27.908;2023-02-01T07:53:36;9.03;60.15
71039;SHT30;58692;43.212;27.908;2023-02-01T07:56:03;8.79;60.98
71039;SHT30;58692;43.212;27.908;2023-02-01T07:58:29;8.58;61.53
71039;SHT30;58692;43.212;27.908;2023-02-01T08:00:55;8.83;61.17
71039;SHT30;58692;43.212;27.908;2023-02-01T08:03:36;8.51;61.74
71039;SHT30;58692;43.212;27.908;2023-02-01T08:06:02;8.15;62.66
71039;SHT30;58692;43.212;27.908;2023-02-01T08:08:28;7.89;63.19
71039;SHT30;58692;43.212;27.908;2023-02-01T08:10:58;7.79;63.75
71039;SHT30;58692;43.212;27.908;2023-02-01T08:13:24;7.83;63.67
71039;SHT30;58692;43.212;27.908;2023-02-01T08:15:49;7.82;64.47
71039;SHT30;58692;43.212;27.908;2023-02-01T08:18:15;7.91;64.22
71039;SHT30;58692;43.212;27.908;2023-02-01T08:20:45;7.82;63.81
71039;SHT30;58692;43.212;27.908;2023-02-01T08:23:11;7.77;63.76
71039;SHT30;58692;43.212;27.908;2023-02-01T08:25:37;7.74;64.24
71039;SHT30;58692;43.212;27.908;2023-02-01T08:28:05;7.95;63.50
71039;SHT30;58692;43.212;27.908;2023-02-01T08:30:30;8.08;63.20
71039;SHT30;58692;43.212;27.908;2023-02-01T08:32:56;7.84;63.52
71039;SHT30;58692;43.212;27.908;2023-02-01T08:35:22;8.03;62.94
71039;SHT30;58692;43.212;27.908;2023-02-01T08:37:49;8.62;61.80
71039;SHT30;58692;43.212;27.908;2023-02-01T08:40:15;8.21;62.57
71039;SHT30;58692;43.212;27.908;2023-02-01T08:42:41;8.17;62.40
71039;SHT30;58692;43.212;27.908;2023-02-01T08:45:24;8.24;63.74
71039;SHT30;58692;43.212;27.908;2023-02-01T08:47:52;8.64;62.19
71039;SHT30;58692;43.212;27.908;2023-02-01T08:50:18;8.56;61.51
71039;SHT30;58692;43.212;27.908;2023-02-01T08:52:45;8.78;61.10
71039;SHT30;58692;43.212;27.908;2023-02-01T08:55:11;8.85;61.19
71039;SHT30;58692;43.212;27.908;2023-02-01T08:57:37;9.33;59.97
71039;SHT30;58692;43.212;27.908;2023-02-01T09:00:06;9.94;59.18
71039;SHT30;58692;43.212;27.908;2023-02-01T09:02:33;10.08;57.65
71039;SHT30;58692;43.212;27.908;2023-02-01T09:04:59;9.40;59.35
71039;SHT30;58692;43.212;27.908;2023-02-01T09:07:24;9.58;58.99
71039;SHT30;58692;43.212;27.908;2023-02-01T09:09:50;9.31;59.86
71039;SHT30;58692;43.212;27.908;2023-02-01T09:12:16;9.77;58.30
71039;SHT30;58692;43.212;27.908;2023-02-01T09:14:41;10.21;56.96
71039;SHT30;58692;43.212;27.908;2023-02-01T09:17:08;8.92;59.53
71039;SHT30;58692;43.212;27.908;2023-02-01T09:19:34;8.23;61.41
71039;SHT30;58692;43.212;27.908;2023-02-01T09:21:59;7.83;62.83
71039;SHT30;58692;43.212;27.908;2023-02-01T09:24:25;8.24;61.28
71039;SHT30;58692;43.212;27.908;2023-02-01T09:26:50;8.44;60.86
71039;SHT30;58692;43.212;27.908;2023-02-01T09:29:17;9.80;57.59
71039;SHT30;58692;43.212;27.908;2023-02-01T09:31:43;9.92;56.17
71039;SHT30;58692;43.212;27.908;2023-02-01T09:34:08;9.64;57.43
71039;SHT30;58692;43.212;27.908;2023-02-01T09:36:34;9.73;57.53
71039;SHT30;58692;43.212;27.908;2023-02-01T09:39:01;10.87;54.09
71039;SHT30;58692;43.212;27.908;2023-02-01T09:41:55;11.13;53.03
71039;SHT30;58692;43.212;27.908;2023-02-01T09:47:20;11.82;50.96
71039;SHT30;58692;43.212;27.908;2023-02-01T09:49:54;12.30;50.15
71039;SHT30;58692;43.212;27.908;2023-02-01T09:52:30;12.34;49.99
71039;SHT30;58692;43.212;27.908;2023-02-01T09:55:04;12.19;50.00
71039;SHT30;58692;43.212;27.908;2023-02-01T09:57:41;12.13;49.93
71039;SHT30;58692;43.212;27.908;2023-02-01T10:00:17;11.48;51.12
71039;SHT30;58692;43.212;27.908;2023-02-01T10:02:44;12.40;48.80
71039;SHT30;58692;43.212;27.908;2023-02-01T10:05:18;12.67;47.31
71039;SHT30;58692;43.212;27.908;2023-02-01T10:07:59;13.25;47.05
71039;SHT30;58692;43.212;27.908;2023-02-01T10:10:40;13.45;46.29
71039;SHT30;58692;43.212;27.908;2023-02-01T10:13:29;12.73;47.86
71039;SHT30;58692;43.212;27.908;2023-02-01T10:26:59;14.03;45.34
71039;SHT30;58692;43.212;27.908;2023-02-01T10:29:32;14.40;44.80
71039;SHT30;58692;43.212;27.908;2023-02-01T10:32:01;14.27;44.22
71039;SHT30;58692;43.212;27.908;2023-02-01T10:34:31;14.24;44.71
71039;SHT30;58692;43.212;27.908;2023-02-01T10:37:04;13.91;44.50
71039;SHT30;58692;43.212;27.908;2023-02-01T10:39:37;14.20;44.17
71039;SHT30;58692;43.212;27.908;2023-02-01T10:42:03;13.90;45.29
71039;SHT30;58692;43.212;27.908;2023-02-01T10:44:30;14.03;44.40
71039;SHT30;58692;43.212;27.908;2023-02-01T10:46:56;13.66;44.80
71039;SHT30;58692;43.212;27.908;2023-02-01T10:49:33;13.24;45.51
71039;SHT30;58692;43.212;27.908;2023-02-01T10:52:20;12.30;47.51
71039;SHT30;58692;43.212;27.908;2023-02-01T10:54:46;12.19;48.65
71039;SHT30;58692;43.212;27.908;2023-02-01T10:57:27;12.44;47.66
71039;SHT30;58692;43.212;27.908;2023-02-01T10:59:55;12.40;47.80
71039;SHT30;58692;43.212;27.908;2023-02-01T11:02:36;13.41;45.69
71039;SHT30;58692;43.212;27.908;2023-02-01T11:05:07;13.62;44.95
71039;SHT30;58692;43.212;27.908;2023-02-01T11:07:36;13.91;44.83
71039;SHT30;58692;43.212;27.908;2023-02-01T11:10:03;13.80;44.37
71039;SHT30;58692;43.212;27.908;2023-02-01T11:15:00;13.62;44.58
71039;SHT30;58692;43.212;27.908;2023-02-01T11:17:39;12.06;47.54
71039;SHT30;58692;43.212;27.908;2023-02-01T11:20:16;11.74;48.47
71039;SHT30;58692;43.212;27.908;2023-02-01T11:22:48;11.77;48.25
71039;SHT30;58692;43.212;27.908;2023-02-01T11:25:16;10.84;50.54
71039;SHT30;58692;43.212;27.908;2023-02-01T11:27:43;10.66;51.14
71039;SHT30;58692;43.212;27.908;2023-02-01T11:30:15;10.16;51.84
71039;SHT30;58692;43.212;27.908;2023-02-01T11:32:42;9.92;52.39
71039;SHT30;58692;43.212;27.908;2023-02-01T11:35:15;9.55;53.13
71039;SHT30;58692;43.212;27.908;2023-02-01T11:37:42;9.64;53.39
71039;SHT30;58692;43.212;27.908;2023-02-01T11:40:27;9.67;53.80
71039;SHT30;58692;43.212;27.908;2023-02-01T11:42:56;9.80;53.74
71039;SHT30;58692;43.212;27.908;2023-02-01T11:45:28;9.97;52.63
71039;SHT30;58692;43.212;27.908;2023-02-01T11:47:55;9.98;52.51
71039;SHT30;58692;43.212;27.908;2023-02-01T11:50:30;10.11;52.47
71039;SHT30;58692;43.212;27.908;2023-02-01T11:56:18;11.64;49.42
71039;SHT30;58692;43.212;27.908;2023-02-01T11:58:59;11.45;48.92
71039;SHT30;58692;43.212;27.908;2023-02-01T12:07:20;10.80;50.48
71039;SHT30;58692;43.212;27.908;2023-02-01T12:09:58;10.18;51.85
71039;SHT30;58692;43.212;27.908;2023-02-01T12:12:42;10.05;52.49
71039;SHT30;58692;43.212;27.908;2023-02-01T12:21:14;9.57;55.02
71039;SHT30;58692;43.212;27.908;2023-02-01T12:26:44;9.65;55.07
71039;SHT30;58692;43.212;27.908;2023-02-01T12:32:03;9.15;55.51
71039;SHT30;58692;43.212;27.908;2023-02-01T12:42:43;8.68;56.38
71039;SHT30;58692;43.212;27.908;2023-02-01T12:51:02;10.62;50.17
71039;SHT30;58692;43.212;27.908;2023-02-01T12:56:23;10.97;49.03
71039;SHT30;58692;43.212;27.908;2023-02-01T12:58:53;10.06;51.41
71039;SHT30;58692;43.212;27.908;2023-02-01T13:01:24;9.73;52.05
71039;SHT30;58692;43.212;27.908;2023-02-01T13:04:12;10.76;50.46
71039;SHT30;58692;43.212;27.908;2023-02-01T13:06:51;10.92;50.20
71039;SHT30;58692;43.212;27.908;2023-02-01T13:12:04;11.20;48.86
71039;SHT30;58692;43.212;27.908;2023-02-01T13:14:40;11.24;48.46
71039;SHT30;58692;43.212;27.908;2023-02-01T13:17:14;11.10;48.95
71039;SHT30;58692;43.212;27.908;2023-02-01T13:22:24;10.89;49.69
71039;SHT30;58692;43.212;27.908;2023-02-01T13:24:56;10.69;49.74
71039;SHT30;58692;43.212;27.908;2023-02-01T13:27:22;10.35;50.38
71039;SHT30;58692;43.212;27.908;2023-02-01T13:30:00;9.92;51.01
71039;SHT30;58692;43.212;27.908;2023-02-01T13:35:27;9.06;53.38
71039;SHT30;58692;43.212;27.908;2023-02-01T13:40:54;8.92;54.39
71039;SHT30;58692;43.212;27.908;2023-02-01T13:43:27;8.85;54.71
71039;SHT30;58692;43.212;27.908;2023-02-01T13:45:57;8.73;54.55
71039;SHT30;58692;43.212;27.908;2023-02-01T13:48:29;8.49;55.42
71039;SHT30;58692;43.212;27.908;2023-02-01T13:50:59;8.55;55.57
71039;SHT30;58692;43.212;27.908;2023-02-01T13:53:29;8.44;56.12
71039;SHT30;58692;43.212;27.908;2023-02-01T13:55:57;8.41;56.51
71039;SHT30;58692;43.212;27.908;2023-02-01T13:58:35;8.42;56.46
71039;SHT30;58692;43.212;27.908;2023-02-01T14:01:32;8.24;56.90
71039;SHT30;58692;43.212;27.908;2023-02-01T14:04:00;8.25;57.28
71039;SHT30;58692;43.212;27.908;2023-02-01T14:11:38;8.21;58.21
71039;SHT30;58692;43.212;27.908;2023-02-01T14:14:37;8.23;58.64
71039;SHT30;58692;43.212;27.908;2023-02-01T14:19:48;8.21;59.07
71039;SHT30;58692;43.212;27.908;2023-02-01T14:25:00;8.34;59.62
71039;SHT30;58692;43.212;27.908;2023-02-01T14:27:29;8.20;59.98
71039;SHT30;58692;43.212;27.908;2023-02-01T14:30:00;8.21;59.97
71039;SHT30;58692;43.212;27.908;2023-02-01T14:32:34;8.11;60.04
71039;SHT30;58692;43.212;27.908;2023-02-01T14:35:05;8.08;60.26
71039;SHT30;58692;43.212;27.908;2023-02-01T14:37:34;8.13;60.27
71039;SHT30;58692;43.212;27.908;2023-02-01T14:42:39;8.08;60.53
71039;SHT30;58692;43.212;27.908;2023-02-01T14:50:39;8.14;60.83
71039;SHT30;58692;43.212;27.908;2023-02-01T14:53:21;8.20;60.73
71039;SHT30;58692;43.212;27.908;2023-02-01T14:55:59;8.17;60.85
71039;SHT30;58692;43.212;27.908;2023-02-01T15:06:37;8.08;61.36
71039;SHT30;58692;43.212;27.908;2023-02-01T15:11:29;8.15;61.16
71039;SHT30;58692;43.212;27.908;2023-02-01T15:13:55;8.07;61.26
71039;SHT30;58692;43.212;27.908;2023-02-01T15:16:24;8.01;61.27
71039;SHT30;58692;43.212;27.908;2023-02-01T15:18:50;8.00;61.42
71039;SHT30;58692;43.212;27.908;2023-02-01T15:21:31;8.00;61.22
71039;SHT30;58692;43.212;27.908;2023-02-01T15:24:14;7.95;61.47
71039;SHT30;58692;43.212;27.908;2023-02-01T15:26:40;7.94;61.49
71039;SHT30;58692;43.212;27.908;2023-02-01T15:29:10;7.79;61.94
71039;SHT30;58692;43.212;27.908;2023-02-01T15:31:38;7.73;62.38
71039;SHT30;58692;43.212;27.908;2023-02-01T15:34:06;7.77;62.39
71039;SHT30;58692;43.212;27.908;2023-02-01T15:36:32;7.76;62.33
71039;SHT30;58692;43.212;27.908;2023-02-01T15:39:18;7.80;62.19
71039;SHT30;58692;43.212;27.908;2023-02-01T15:41:48;7.60;62.45
71039;SHT30;58692;43.212;27.908;2023-02-01T15:47:04;7.72;62.36
71039;SHT30;58692;43.212;27.908;2023-02-01T15:49:36;7.70;62.56
71039;SHT30;58692;43.212;27.908;2023-02-01T15:52:03;7.72;62.41
71039;SHT30;58692;43.212;27.908;2023-02-01T15:54:43;7.62;62.87
71039;SHT30;58692;43.212;27.908;2023-02-01T15:57:11;7.56;63.02
71039;SHT30;58692;43.212;27.908;2023-02-01T15:59:42;7.56;63.14
71039;SHT30;58692;43.212;27.908;2023-02-01T16:02:25;7.58;63.06
71039;SHT30;58692;43.212;27.908;2023-02-01T16:04:51;7.45;63.38
71039;SHT30;58692;43.212;27.908;2023-02-01T16:07:32;7.38;63.54
71039;SHT30;58692;43.212;27.908;2023-02-01T16:10:00;7.42;63.74
71039;SHT30;58692;43.212;27.908;2023-02-01T16:12:46;7.50;63.51
71039;SHT30;58692;43.212;27.908;2023-02-01T16:15:11;7.46;63.54
71039;SHT30;58692;43.212;27.908;2023-02-01T16:17:37;7.32;64.02
71039;SHT30;58692;43.212;27.908;2023-02-01T16:20:04;7.40;64.07
71039;SHT30;58692;43.212;27.908;2023-02-01T16:22:29;7.32;64.17
71039;SHT30;58692;43.212;27.908;2023-02-01T16:24:55;7.39;64.09
71039;SHT30;58692;43.212;27.908;2023-02-01T16:27:20;7.28;64.56
71039;SHT30;58692;43.212;27.908;2023-02-01T16:29:48;7.09;64.95
71039;SHT30;58692;43.212;27.908;2023-02-01T16:32:19;7.19;65.05
71039;SHT30;58692;43.212;27.908;2023-02-01T16:34:45;7.14;65.32
71039;SHT30;58692;43.212;27.908;2023-02-01T16:37:20;7.12;65.53
71039;SHT30;58692;43.212;27.908;2023-02-01T16:39:46;7.18;65.42
71039;SHT30;58692;43.212;27.908;2023-02-01T16:42:13;7.29;65.35
71039;SHT30;58692;43.212;27.908;2023-02-01T16:44:39;7.28;65.08
71039;SHT30;58692;43.212;27.908;2023-02-01T16:47:19;7.25;65.24
71039;SHT30;58692;43.212;27.908;2023-02-01T16:49:45;7.22;65.38
71039;SHT30;58692;43.212;27.908;2023-02-01T16:52:16;7.14;65.68
71039;SHT30;58692;43.212;27.908;2023-02-01T16:54:42;7.16;65.75
71039;SHT30;58692;43.212;27.908;2023-02-01T16:57:13;7.14;65.81
71039;SHT30;58692;43.212;27.908;2023-02-01T16:59:39;7.09;65.74
71039;SHT30;58692;43.212;27.908;2023-02-01T17:02:05;7.16;65.70
71039;SHT30;58692;43.212;27.908;2023-02-01T17:04:31;7.18;65.87
71039;SHT30;58692;43.212;27.908;2023-02-01T17:06:56;7.22;65.81
71039;SHT30;58692;43.212;27.908;2023-02-01T17:09:23;7.16;65.71
71039;SHT30;58692;43.212;27.908;2023-02-01T17:11:50;7.07;66.08
71039;SHT30;58692;43.212;27.908;2023-02-01T17:14:18;7.07;66.07
71039;SHT30;58692;43.212;27.908;2023-02-01T17:16:45;7.08;66.34
71039;SHT30;58692;43.212;27.908;2023-02-01T17:19:14;7.11;66.23
71039;SHT30;58692;43.212;27.908;2023-02-01T17:21:46;7.09;66.18
71039;SHT30;58692;43.212;27.908;2023-02-01T17:24:16;7.02;66.63
71039;SHT30;58692;43.212;27.908;2023-02-01T17:26:43;7.08;66.61
71039;SHT30;58692;43.212;27.908;2023-02-01T17:29:09;7.01;66.59
71039;SHT30;58692;43.212;27.908;2023-02-01T17:31:40;6.98;66.77
71039;SHT30;58692;43.212;27.908;2023-02-01T17:34:07;6.94;67.07
71039;SHT30;58692;43.212;27.908;2023-02-01T17:36:33;6.89;67.28